createdAt,value
2019-04-01T00:00:52.158Z,9.06
2019-04-01T00:03:22.207Z,9.03
2019-04-01T00:05:52.247Z,9.02
2019-04-01T00:08:22.236Z,8.97
2019-04-01T00:10:52.305Z,8.94
2019-04-01T00:13:22.387Z,8.93
2019-04-01T00:15:52.443Z,8.92
2019-04-01T00:18:22.499Z,8.91
2019-04-01T00:20:52.505Z,8.88
2019-04-01T00:23:22.674Z,8.86
2019-04-01T00:25:52.727Z,8.82
2019-04-01T00:28:22.764Z,8.78
2019-04-01T00:30:52.827Z,8.75
2019-04-01T00:33:22.841Z,8.71
2019-04-01T00:35:52.859Z,8.70
2019-04-01T00:38:22.889Z,8.67
2019-04-01T00:40:52.885Z,8.64
2019-04-01T00:43:44.916Z,8.59
2019-04-01T00:46:17.081Z,8.56
2019-04-01T00:48:47.153Z,8.52
2019-04-01T00:51:17.245Z,8.49
2019-04-01T00:53:47.599Z,8.43
2019-04-01T00:56:17.602Z,8.40
2019-04-01T00:58:47.721Z,8.37
2019-04-01T01:01:17.744Z,8.36
2019-04-01T01:03:47.771Z,8.33
2019-04-01T01:06:17.798Z,8.35
2019-04-01T01:08:47.842Z,8.31
2019-04-01T01:11:17.914Z,8.29
2019-04-01T01:13:48.012Z,8.27
2019-04-01T01:16:18.072Z,8.22
2019-04-01T01:18:48.251Z,8.21
2019-04-01T01:21:18.290Z,8.19
2019-04-01T01:23:48.452Z,8.18
2019-04-01T01:26:18.496Z,8.13
2019-04-01T01:28:48.592Z,8.09
2019-04-01T01:31:18.669Z,8.06
2019-04-01T01:33:48.705Z,8.02
2019-04-01T01:36:18.826Z,7.98
2019-04-01T01:38:48.857Z,7.95
2019-04-01T01:41:18.874Z,7.92
2019-04-01T01:43:48.874Z,7.90
2019-04-01T01:46:18.866Z,7.88
2019-04-01T01:48:48.917Z,7.82
2019-04-01T01:51:19.012Z,7.78
2019-04-01T01:53:49.015Z,7.75
2019-04-01T01:56:19.109Z,7.74
2019-04-01T01:58:49.131Z,7.73
2019-04-01T02:01:19.207Z,7.72
2019-04-01T02:03:49.248Z,7.70
2019-04-01T02:06:19.282Z,7.67
2019-04-01T02:08:49.294Z,7.62
2019-04-01T02:11:19.328Z,7.60
2019-04-01T02:13:49.416Z,7.57
2019-04-01T02:16:19.538Z,7.55
2019-04-01T02:18:49.558Z,7.57
2019-04-01T02:21:19.621Z,7.53
2019-04-01T02:23:49.770Z,7.48
2019-04-01T02:26:19.831Z,7.44
2019-04-01T02:28:49.874Z,7.38
2019-04-01T02:31:19.945Z,7.35
2019-04-01T02:33:50.036Z,7.33
2019-04-01T02:36:20.056Z,7.31
2019-04-01T02:38:50.107Z,7.28
2019-04-01T02:41:20.106Z,7.27
2019-04-01T02:43:50.219Z,7.23
2019-04-01T02:46:20.273Z,7.19
2019-04-01T02:48:50.383Z,7.18
2019-04-01T02:51:20.459Z,7.20
2019-04-01T02:53:50.510Z,7.12
2019-04-01T02:56:20.597Z,7.09
2019-04-01T02:58:50.675Z,7.05
2019-04-01T03:01:20.681Z,7.01
2019-04-01T03:03:50.739Z,6.96
2019-04-01T03:06:20.786Z,6.94
2019-04-01T03:08:50.826Z,6.92
2019-04-01T03:11:20.845Z,6.88
2019-04-01T03:13:50.902Z,6.84
2019-04-01T03:16:20.970Z,6.79
2019-04-01T03:18:51.046Z,6.74
2019-04-01T03:21:21.131Z,6.73
2019-04-01T03:23:51.184Z,6.69
2019-04-01T03:26:21.220Z,6.64
2019-04-01T03:28:51.227Z,6.66
2019-04-01T03:31:21.243Z,6.64
2019-04-01T03:33:51.335Z,6.63
2019-04-01T03:36:21.439Z,6.51
2019-04-01T03:38:51.473Z,6.51
2019-04-01T03:41:21.577Z,6.51
2019-04-01T03:43:51.690Z,6.50
2019-04-01T03:46:21.757Z,6.45
2019-04-01T03:48:51.795Z,6.41
2019-04-01T03:51:21.872Z,6.43
2019-04-01T03:53:51.914Z,6.44
2019-04-01T03:56:21.925Z,6.43
2019-04-01T03:58:52.004Z,6.44
2019-04-01T04:01:22.039Z,6.42
2019-04-01T04:03:52.115Z,6.36
2019-04-01T04:06:22.127Z,6.34
2019-04-01T04:08:52.232Z,6.34
2019-04-01T04:11:22.253Z,6.35
2019-04-01T04:13:52.353Z,6.33
2019-04-01T04:16:22.416Z,6.32
2019-04-01T04:18:52.661Z,6.31
2019-04-01T04:21:24.153Z,6.32
2019-04-01T04:23:54.553Z,6.29
2019-04-01T04:26:24.624Z,6.28
2019-04-01T04:28:54.688Z,6.24
2019-04-01T04:31:24.732Z,6.20
2019-04-01T04:33:54.925Z,6.19
2019-04-01T04:36:24.992Z,6.15
2019-04-01T04:38:55.101Z,6.13
2019-04-01T04:41:25.133Z,6.13
2019-04-01T04:43:55.192Z,6.13
2019-04-01T04:46:25.223Z,6.11
2019-04-01T04:48:55.239Z,6.09
2019-04-01T04:51:25.262Z,6.08
2019-04-01T04:53:55.267Z,6.05
2019-04-01T04:56:25.311Z,6.03
2019-04-01T04:58:57.550Z,6.01
2019-04-01T05:01:27.981Z,6.03
2019-04-01T05:03:58.020Z,6.04
2019-04-01T05:06:28.082Z,6.07
2019-04-01T05:08:58.104Z,6.05
2019-04-01T05:11:31.068Z,6.06
2019-04-01T05:14:01.970Z,6.08
2019-04-01T05:16:32.288Z,6.08
2019-04-01T05:19:02.778Z,6.06
2019-04-01T05:21:33.478Z,6.05
2019-04-01T05:24:03.517Z,6.03
2019-04-01T05:26:34.843Z,6.03
2019-04-01T05:29:05.488Z,6.06
2019-04-01T05:31:35.730Z,6.12
2019-04-01T05:34:05.778Z,6.15
2019-04-01T05:36:35.797Z,6.16
2019-04-01T05:39:07.290Z,6.18
2019-04-01T05:41:37.494Z,6.23
2019-04-01T05:44:07.544Z,6.27
2019-04-01T05:46:37.581Z,6.31
2019-04-01T05:49:07.648Z,6.36
2019-04-01T05:51:37.662Z,6.42
2019-04-01T05:54:07.844Z,6.51
2019-04-01T05:56:37.862Z,6.56
2019-04-01T05:59:07.915Z,6.68
2019-04-01T06:01:43.908Z,6.81
2019-04-01T06:04:13.992Z,6.94
2019-04-01T06:06:44.140Z,6.97
2019-04-01T06:09:14.160Z,6.95
2019-04-01T06:11:44.198Z,6.94
2019-04-01T06:14:14.320Z,6.93
2019-04-01T06:16:44.365Z,6.93
2019-04-01T06:19:15.104Z,6.97
2019-04-01T06:21:45.315Z,7.01
2019-04-01T06:24:15.321Z,7.02
2019-04-01T06:26:45.460Z,7.09
2019-04-01T06:29:15.509Z,7.14
2019-04-01T06:31:45.541Z,7.20
2019-04-01T06:34:15.583Z,7.27
2019-04-01T06:36:45.610Z,7.36
2019-04-01T06:39:15.704Z,7.43
2019-04-01T06:41:45.755Z,7.49
2019-04-01T06:44:15.805Z,7.57
2019-04-01T06:46:45.904Z,7.65
2019-04-01T06:49:15.945Z,7.73
2019-04-01T06:51:45.957Z,7.87
2019-04-01T06:54:16.117Z,8.00
2019-04-01T06:56:46.202Z,8.13
2019-04-01T06:59:16.215Z,8.24
2019-04-01T07:01:46.231Z,8.34
2019-04-01T07:04:17.111Z,8.39
2019-04-01T07:06:47.191Z,8.44
2019-04-01T07:09:17.228Z,8.42
2019-04-01T07:11:47.222Z,8.45
2019-04-01T07:14:17.218Z,8.49
2019-04-01T07:16:47.273Z,8.56
2019-04-01T07:19:17.424Z,8.57
2019-04-01T07:21:47.626Z,8.64
2019-04-01T07:24:17.640Z,8.70
2019-04-01T07:26:47.669Z,8.78
2019-04-01T07:29:17.771Z,8.86
2019-04-01T07:31:47.807Z,8.92
2019-04-01T07:34:17.808Z,9.00
2019-04-01T07:36:47.926Z,9.07
2019-04-01T07:39:18.109Z,9.14
2019-04-01T07:41:48.161Z,9.22
2019-04-01T07:44:18.189Z,9.28
2019-04-01T07:46:48.227Z,9.39
2019-04-01T07:49:18.272Z,9.50
2019-04-01T07:51:48.505Z,9.59
2019-04-01T07:54:19.593Z,9.64
2019-04-01T07:56:49.672Z,9.73
2019-04-01T07:59:19.688Z,9.82
2019-04-01T08:01:52.682Z,9.90
2019-04-01T08:04:21.460Z,9.99
2019-04-01T08:06:51.494Z,10.07
2019-04-01T08:09:21.536Z,10.10
2019-04-01T08:11:51.543Z,10.16
2019-04-01T08:14:21.558Z,10.14
2019-04-01T08:16:51.575Z,10.18
2019-04-01T08:19:21.580Z,10.30
2019-04-01T08:21:52.422Z,10.39
2019-04-01T08:24:22.632Z,10.38
2019-04-01T08:26:52.676Z,10.32
2019-04-01T08:29:29.996Z,10.36
2019-04-01T08:31:54.526Z,10.43
2019-04-01T08:34:24.590Z,10.57
2019-04-01T08:36:54.645Z,10.79
2019-04-01T08:39:24.692Z,10.92
2019-04-01T08:41:55.028Z,10.94
2019-04-01T08:44:25.078Z,10.99
2019-04-01T08:46:55.240Z,11.00
2019-04-01T08:49:25.737Z,11.00
2019-04-01T08:51:55.915Z,11.06
2019-04-01T08:54:25.931Z,11.17
2019-04-01T08:56:56.033Z,11.19
2019-04-01T08:59:26.210Z,11.17
2019-04-01T09:01:56.284Z,11.21
2019-04-01T09:04:26.326Z,11.24
2019-04-01T09:06:56.387Z,11.30
2019-04-01T09:09:26.432Z,11.36
2019-04-01T09:11:56.966Z,11.40
2019-04-01T09:14:27.005Z,11.45
2019-04-01T09:16:58.099Z,11.47
2019-04-01T09:19:28.127Z,11.57
2019-04-01T09:21:58.174Z,11.72
2019-04-01T09:24:28.213Z,11.81
2019-04-01T09:26:58.257Z,11.89
2019-04-01T09:29:28.304Z,11.95
2019-04-01T09:31:58.321Z,12.03
2019-04-01T09:34:28.345Z,12.13
2019-04-01T09:36:58.414Z,12.25
2019-04-01T09:39:28.444Z,12.22
2019-04-01T09:41:58.675Z,12.34
2019-04-01T09:44:36.712Z,12.41
2019-04-01T09:47:00.439Z,12.36
2019-04-01T09:49:30.464Z,12.30
2019-04-01T09:52:03.712Z,12.33
2019-04-01T09:54:32.232Z,12.36
2019-04-01T09:57:16.249Z,12.45
2019-04-01T09:59:34.254Z,12.78
2019-04-01T10:02:04.285Z,12.78
2019-04-01T10:04:34.323Z,12.83
2019-04-01T10:07:04.385Z,12.93
2019-04-01T10:09:34.366Z,12.99
2019-04-01T10:12:04.437Z,13.09
2019-04-01T10:14:34.546Z,13.15
2019-04-01T10:17:04.599Z,13.28
2019-04-01T10:19:34.665Z,13.34
2019-04-01T10:22:04.779Z,13.48
2019-04-01T10:24:34.771Z,13.62
2019-04-01T10:27:04.866Z,13.56
2019-04-01T10:29:34.882Z,13.39
2019-04-01T10:32:05.032Z,13.31
2019-04-01T10:34:35.165Z,13.40
2019-04-01T10:37:05.200Z,13.44
2019-04-01T10:39:35.240Z,13.46
2019-04-01T10:42:05.563Z,13.38
2019-04-01T10:44:35.679Z,13.40
2019-04-01T10:47:06.034Z,13.50
2019-04-01T10:49:36.193Z,13.58
2019-04-01T10:52:06.296Z,13.73
2019-04-01T10:54:36.441Z,13.80
2019-04-01T10:57:06.482Z,13.74
2019-04-01T10:59:36.519Z,13.68
2019-04-01T11:02:06.573Z,13.76
2019-04-01T11:04:36.512Z,13.81
2019-04-01T11:07:06.705Z,13.93
2019-04-01T11:09:38.492Z,14.11
2019-04-01T11:12:08.600Z,14.30
2019-04-01T11:14:38.621Z,14.50
2019-04-01T11:17:08.632Z,14.57
2019-04-01T11:19:39.422Z,14.71
2019-04-01T11:22:09.689Z,14.77
2019-04-01T11:24:39.735Z,14.81
2019-04-01T11:27:09.748Z,14.84
2019-04-01T11:29:39.775Z,14.85
2019-04-01T11:32:13.186Z,15.01
2019-04-01T11:34:41.790Z,15.04
2019-04-01T11:37:11.883Z,14.96
2019-04-01T11:39:41.940Z,14.96
2019-04-01T11:42:12.048Z,14.96
2019-04-01T11:44:42.193Z,15.02
2019-04-01T11:47:12.304Z,15.14
2019-04-01T11:49:42.331Z,15.26
2019-04-01T11:52:15.390Z,15.37
2019-04-01T11:54:44.106Z,15.34
2019-04-01T11:57:14.125Z,15.32
2019-04-01T11:59:44.205Z,15.25
2019-04-01T12:02:14.242Z,15.14
2019-04-01T12:04:44.402Z,15.05
2019-04-01T12:07:14.472Z,15.10
2019-04-01T12:09:44.521Z,15.19
2019-04-01T12:12:23.598Z,15.34
2019-04-01T12:14:46.499Z,15.43
2019-04-01T12:17:16.491Z,15.53
2019-04-01T12:19:46.591Z,15.55
2019-04-01T12:22:19.744Z,15.53
2019-04-01T12:24:48.398Z,15.61
2019-04-01T12:27:18.536Z,15.81
2019-04-01T12:29:48.589Z,15.79
2019-04-01T12:32:18.842Z,15.90
2019-04-01T12:34:50.026Z,15.93
2019-04-01T12:37:20.095Z,15.95
2019-04-01T12:39:50.159Z,15.88
2019-04-01T12:42:20.203Z,15.88
2019-04-01T12:44:50.231Z,15.85
2019-04-01T12:47:20.232Z,15.91
2019-04-01T12:49:50.269Z,15.86
2019-04-01T12:52:20.483Z,15.77
2019-04-01T12:54:50.572Z,15.69
2019-04-01T12:57:21.050Z,15.69
2019-04-01T12:59:51.311Z,15.78
2019-04-01T13:02:21.381Z,15.92
2019-04-01T13:04:51.659Z,16.19
2019-04-01T13:07:21.721Z,16.41
2019-04-01T13:09:51.913Z,16.54
2019-04-01T13:12:22.028Z,16.68
2019-04-01T13:14:55.377Z,16.65
2019-04-01T13:17:23.795Z,16.53
2019-04-01T13:19:53.851Z,16.52
2019-04-01T13:22:23.861Z,16.58
2019-04-01T13:24:53.865Z,16.68
2019-04-01T13:27:24.006Z,16.76
2019-04-01T13:29:54.036Z,16.75
2019-04-01T13:32:24.121Z,16.74
2019-04-01T13:34:54.297Z,16.76
2019-04-01T13:37:24.364Z,16.83
2019-04-01T13:39:54.379Z,16.87
2019-04-01T13:42:25.062Z,16.97
2019-04-01T13:44:55.263Z,17.09
2019-04-01T13:47:25.281Z,17.12
2019-04-01T13:49:55.344Z,17.07
2019-04-01T13:52:25.408Z,17.02
2019-04-01T13:54:55.381Z,17.00
2019-04-01T13:57:26.131Z,17.07
2019-04-01T13:59:56.185Z,17.00
2019-04-01T14:02:27.855Z,17.00
2019-04-01T14:04:58.035Z,17.07
2019-04-01T14:07:28.146Z,17.26
2019-04-01T14:09:58.193Z,17.35
2019-04-01T14:12:28.312Z,17.35
2019-04-01T14:14:58.380Z,17.33
2019-04-01T14:17:28.903Z,17.32
2019-04-01T14:19:58.923Z,17.43
2019-04-01T14:22:28.977Z,17.52
2019-04-01T14:24:59.064Z,17.64
2019-04-01T14:27:29.079Z,17.51
2019-04-01T14:29:59.118Z,17.53
2019-04-01T14:32:29.186Z,17.63
2019-04-01T14:34:59.232Z,17.73
2019-04-01T14:37:30.175Z,17.75
2019-04-01T14:40:00.222Z,17.88
2019-04-01T14:42:30.299Z,18.16
2019-04-01T14:45:00.734Z,18.51
2019-04-01T14:47:30.876Z,18.84
2019-04-01T14:50:03.074Z,18.99
2019-04-01T14:52:34.397Z,19.16
2019-04-01T14:55:05.149Z,19.46
2019-04-01T14:57:35.221Z,19.58
2019-04-01T15:00:06.469Z,19.72
2019-04-01T15:02:36.545Z,19.89
2019-04-01T15:05:06.713Z,19.97
2019-04-01T15:07:36.755Z,19.86
2019-04-01T15:10:07.209Z,19.90
2019-04-01T15:12:37.276Z,19.70
2019-04-01T15:15:07.862Z,19.57
2019-04-01T15:17:37.968Z,19.60
2019-04-01T15:20:08.298Z,19.64
2019-04-01T15:22:38.375Z,19.61
2019-04-01T15:25:08.537Z,19.79
2019-04-01T15:27:38.552Z,19.92
2019-04-01T15:30:08.956Z,19.89
2019-04-01T15:32:39.010Z,19.99
2019-04-01T15:35:09.044Z,19.78
2019-04-01T15:37:39.103Z,19.62
2019-04-01T15:40:09.381Z,19.44
2019-04-01T15:42:40.161Z,19.13
2019-04-01T15:45:12.527Z,19.01
2019-04-01T15:47:45.341Z,18.70
2019-04-01T15:50:27.766Z,18.44
2019-04-01T15:52:47.758Z,18.29
2019-04-01T15:55:17.838Z,17.95
2019-04-01T15:57:47.938Z,17.69
2019-04-01T16:00:19.688Z,17.55
2019-04-01T16:02:49.917Z,17.52
2019-04-01T16:05:20.000Z,17.39
2019-04-01T16:07:50.081Z,17.28
2019-04-01T16:10:21.132Z,17.22
2019-04-01T16:12:51.580Z,17.11
2019-04-01T16:15:21.758Z,16.97
2019-04-01T16:17:53.858Z,16.78
2019-04-01T16:20:23.707Z,16.67
2019-04-01T16:22:53.830Z,16.60
2019-04-01T16:25:23.946Z,16.54
2019-04-01T16:27:54.057Z,16.44
2019-04-01T16:30:24.150Z,16.38
2019-04-01T16:32:54.296Z,16.33
2019-04-01T16:35:24.502Z,16.26
2019-04-01T16:37:54.668Z,16.21
2019-04-01T16:40:25.826Z,16.11
2019-04-01T16:42:56.015Z,16.04
2019-04-01T16:45:26.225Z,16.00
2019-04-01T16:47:56.325Z,15.95
2019-04-01T16:50:28.586Z,15.88
2019-04-01T16:52:58.604Z,15.80
2019-04-01T16:55:28.709Z,15.73
2019-04-01T16:57:58.872Z,15.72
2019-04-01T17:00:28.978Z,15.65
2019-04-01T17:02:59.095Z,15.59
2019-04-01T17:05:33.235Z,15.53
2019-04-01T17:08:03.407Z,15.46
2019-04-01T17:10:33.701Z,15.39
2019-04-01T17:13:03.894Z,15.33
2019-04-01T17:15:34.087Z,15.27
2019-04-01T17:18:04.220Z,15.19
2019-04-01T17:20:34.599Z,15.10
2019-04-01T17:23:04.794Z,15.03
2019-04-01T17:25:34.947Z,14.93
2019-04-01T17:28:05.133Z,14.85
2019-04-01T17:30:35.371Z,14.78
2019-04-01T17:33:08.342Z,14.71
2019-04-01T17:35:37.575Z,14.60
2019-04-01T17:38:07.691Z,14.52
2019-04-01T17:40:37.849Z,14.46
2019-04-01T17:43:09.405Z,14.38
2019-04-01T17:45:41.041Z,14.30
2019-04-01T17:48:11.590Z,14.21
2019-04-01T17:50:41.721Z,14.11
2019-04-01T17:53:12.668Z,14.03
2019-04-01T17:55:45.575Z,13.96
2019-04-01T17:58:15.542Z,13.88
2019-04-01T18:00:54.362Z,13.81
2019-04-01T18:03:24.451Z,13.75
2019-04-01T18:05:54.638Z,13.69
2019-04-01T18:08:24.933Z,13.62
2019-04-01T18:10:55.048Z,13.55
2019-04-01T18:13:25.204Z,13.46
2019-04-01T18:15:57.324Z,13.39
2019-04-01T18:18:27.663Z,13.32
2019-04-01T18:20:58.063Z,13.25
2019-04-01T18:23:28.150Z,13.17
2019-04-01T18:25:58.223Z,13.10
2019-04-01T18:28:28.491Z,13.05
2019-04-01T18:30:58.857Z,13.01
2019-04-01T18:33:30.061Z,12.96
2019-04-01T18:36:00.469Z,12.90
2019-04-01T18:38:30.703Z,12.84
2019-04-01T18:41:00.757Z,12.79
2019-04-01T18:43:30.975Z,12.73
2019-04-01T18:46:01.158Z,12.71
2019-04-01T18:48:31.398Z,12.67
2019-04-01T18:51:01.546Z,12.63
2019-04-01T18:53:31.623Z,12.58
2019-04-01T18:56:01.837Z,12.53
2019-04-01T18:58:32.060Z,12.47
2019-04-01T19:01:04.368Z,12.43
2019-04-01T19:03:34.157Z,12.39
2019-04-01T19:06:04.300Z,12.32
2019-04-01T19:08:34.426Z,12.26
2019-04-01T19:11:04.813Z,12.21
2019-04-01T19:13:34.981Z,12.17
2019-04-01T19:16:06.804Z,12.11
2019-04-01T19:18:39.556Z,12.07
2019-04-01T19:21:09.501Z,12.01
2019-04-01T19:23:39.636Z,11.96
2019-04-01T19:26:10.341Z,11.91
2019-04-01T19:28:40.547Z,11.87
2019-04-01T19:31:12.001Z,11.84
2019-04-01T19:33:42.445Z,11.80
2019-04-01T19:36:15.584Z,11.77
2019-04-01T19:38:45.920Z,11.75
2019-04-01T19:41:16.076Z,11.71
2019-04-01T19:43:51.002Z,11.66
2019-04-01T19:46:20.421Z,11.63
2019-04-01T19:48:50.584Z,11.58
2019-04-01T19:51:20.708Z,11.54
2019-04-01T19:53:50.876Z,11.45
2019-04-01T19:56:21.014Z,11.47
2019-04-01T19:58:51.250Z,11.43
2019-04-01T20:01:23.469Z,11.40
2019-04-01T20:03:54.060Z,11.35
2019-04-01T20:06:24.329Z,11.30
2019-04-01T20:08:54.491Z,11.24
2019-04-01T20:11:24.608Z,11.20
2019-04-01T20:13:55.061Z,11.16
2019-04-01T20:16:25.370Z,11.11
2019-04-01T20:18:55.587Z,11.06
2019-04-01T20:21:25.737Z,11.01
2019-04-01T20:23:55.856Z,10.97
2019-04-01T20:26:25.930Z,10.93
2019-04-01T20:28:56.048Z,10.85
2019-04-01T20:31:26.114Z,10.83
2019-04-01T20:33:56.236Z,10.77
2019-04-01T20:36:28.797Z,10.75
2019-04-01T20:38:58.100Z,10.70
2019-04-01T20:41:28.184Z,10.68
2019-04-01T20:43:58.304Z,10.63
2019-04-01T20:46:28.391Z,10.58
2019-04-01T20:48:58.561Z,10.52
2019-04-01T20:51:28.633Z,10.48
2019-04-01T20:53:58.685Z,10.43
2019-04-01T20:56:28.787Z,10.38
2019-04-01T20:58:58.844Z,10.33
2019-04-01T21:01:28.945Z,10.29
2019-04-01T21:03:59.201Z,10.25
2019-04-01T21:06:29.183Z,10.21
2019-04-01T21:08:59.223Z,10.15
2019-04-01T21:11:29.284Z,10.01
2019-04-01T21:13:59.315Z,10.01
2019-04-01T21:16:29.404Z,9.96
2019-04-01T21:18:59.481Z,9.89
2019-04-01T21:21:29.531Z,9.84
2019-04-01T21:23:59.883Z,9.76
2019-04-01T21:26:30.056Z,9.74
2019-04-01T21:29:00.113Z,9.75
2019-04-01T21:31:30.170Z,9.72
2019-04-01T21:34:00.255Z,9.67
2019-04-01T21:36:30.339Z,9.63
2019-04-01T21:39:01.244Z,9.58
2019-04-01T21:41:31.742Z,9.49
2019-04-01T21:44:01.857Z,9.50
2019-04-01T21:46:31.844Z,9.47
2019-04-01T21:49:01.972Z,9.41
2019-04-01T21:51:33.006Z,9.38
2019-04-01T21:54:03.233Z,9.37
2019-04-01T21:56:33.269Z,9.34
2019-04-01T21:59:03.338Z,9.31
2019-04-01T22:01:33.639Z,9.29
2019-04-01T22:04:03.715Z,9.25
2019-04-01T22:06:33.755Z,9.23
2019-04-01T22:09:07.060Z,9.18
2019-04-01T22:11:37.134Z,9.12
2019-04-01T22:14:07.232Z,9.06
2019-04-01T22:16:37.250Z,9.00
2019-04-01T22:19:07.341Z,8.97
2019-04-01T22:21:37.389Z,8.94
2019-04-01T22:24:07.426Z,8.91
2019-04-01T22:26:37.502Z,8.89
2019-04-01T22:29:07.543Z,8.83
2019-04-01T22:31:37.585Z,8.78
2019-04-01T22:34:08.279Z,8.78
2019-04-01T22:36:40.083Z,8.75
2019-04-01T22:39:10.409Z,8.70
2019-04-01T22:41:41.681Z,8.67
2019-04-01T22:44:11.851Z,8.63
2019-04-01T22:46:41.848Z,8.58
2019-04-01T22:49:12.624Z,8.55
2019-04-01T22:51:42.681Z,8.49
2019-04-01T22:54:12.767Z,8.43
2019-04-01T22:56:42.822Z,8.41
2019-04-01T22:59:13.194Z,8.39
2019-04-01T23:01:44.157Z,8.38
2019-04-01T23:04:15.156Z,8.34
2019-04-01T23:06:45.195Z,8.31
2019-04-01T23:09:15.313Z,8.25
2019-04-01T23:11:45.354Z,8.21
2019-04-01T23:14:17.092Z,8.17
2019-04-01T23:16:47.442Z,8.13
2019-04-01T23:19:17.516Z,8.12
2019-04-01T23:21:47.572Z,8.11
2019-04-01T23:24:17.631Z,8.10
2019-04-01T23:26:47.684Z,8.09
2019-04-01T23:29:17.727Z,8.05
2019-04-01T23:31:47.728Z,8.04
2019-04-01T23:34:17.770Z,8.00
2019-04-01T23:36:47.840Z,7.94
2019-04-01T23:39:17.855Z,7.92
2019-04-01T23:41:47.888Z,7.87
2019-04-01T23:44:17.930Z,7.81
2019-04-01T23:46:48.082Z,7.77
2019-04-01T23:49:18.509Z,7.73
2019-04-01T23:51:48.548Z,7.74
2019-04-01T23:54:18.593Z,7.69
2019-04-01T23:56:48.644Z,7.65
2019-04-01T23:59:19.216Z,7.60
